createdAt,value
2023-02-14T00:00:11.191Z,0.00
2023-02-14T00:01:11.182Z,0.00
2023-02-14T00:02:11.171Z,0.00
2023-02-14T00:03:11.288Z,0.00
2023-02-14T00:04:11.199Z,0.00
2023-02-14T00:05:11.144Z,0.00
2023-02-14T00:06:11.163Z,0.00
2023-02-14T00:07:11.124Z,0.00
2023-02-14T00:08:11.206Z,0.00
2023-02-14T00:09:11.110Z,0.00
2023-02-14T00:10:11.091Z,0.00
2023-02-14T00:11:11.092Z,0.00
2023-02-14T00:12:11.079Z,0.00
2023-02-14T00:13:11.069Z,0.00
2023-02-14T00:14:11.064Z,0.00
2023-02-14T00:15:11.040Z,0.00
2023-02-14T00:16:11.127Z,0.00
2023-02-14T00:17:11.012Z,0.00
2023-02-14T00:18:11.022Z,0.00
2023-02-14T00:19:11.010Z,0.00
2023-02-14T00:20:10.987Z,0.00
2023-02-14T00:21:10.970Z,0.00
2023-02-14T00:22:10.978Z,0.00
2023-02-14T00:23:10.948Z,0.00
2023-02-14T00:24:10.958Z,0.00
2023-02-14T00:25:10.954Z,0.00
2023-02-14T00:26:10.929Z,0.00
2023-02-14T00:27:11.244Z,0.00
2023-02-14T00:28:10.919Z,0.00
2023-02-14T00:29:10.921Z,0.00
2023-02-14T00:30:10.930Z,0.00
2023-02-14T00:31:11.015Z,0.00
2023-02-14T00:32:10.903Z,0.00
2023-02-14T00:33:10.852Z,0.00
2023-02-14T00:34:10.840Z,0.00
2023-02-14T00:35:10.826Z,0.00
2023-02-14T00:36:10.808Z,0.00
2023-02-14T00:37:10.876Z,0.00
2023-02-14T00:38:10.827Z,0.00
2023-02-14T00:39:10.796Z,0.00
2023-02-14T00:40:10.790Z,0.00
2023-02-14T00:41:10.775Z,0.00
2023-02-14T00:42:10.757Z,0.00
2023-02-14T00:43:10.739Z,0.00
2023-02-14T00:44:10.726Z,0.00
2023-02-14T00:45:10.724Z,0.00
2023-02-14T00:46:10.768Z,0.00
2023-02-14T00:47:10.695Z,0.00
2023-02-14T00:48:10.689Z,0.00
2023-02-14T00:49:10.667Z,0.00
2023-02-14T00:50:10.678Z,0.00
2023-02-14T00:51:10.647Z,0.00
2023-02-14T00:52:10.635Z,0.00
2023-02-14T00:53:10.627Z,0.00
2023-02-14T00:54:10.624Z,0.00
2023-02-14T00:55:10.624Z,0.00
2023-02-14T00:56:10.602Z,0.00
2023-02-14T00:57:10.606Z,0.00
2023-02-14T00:58:10.593Z,0.00
2023-02-14T00:59:10.589Z,0.00
2023-02-14T01:00:10.582Z,0.00
2023-02-14T01:01:10.599Z,0.00
2023-02-14T01:02:10.595Z,0.00
2023-02-14T01:03:10.523Z,0.00
2023-02-14T01:04:10.512Z,0.00
2023-02-14T01:05:10.525Z,0.00
2023-02-14T01:06:10.515Z,0.00
2023-02-14T01:07:10.473Z,0.00
2023-02-14T01:08:10.471Z,0.00
2023-02-14T01:09:10.463Z,0.00
2023-02-14T01:10:10.464Z,0.00
2023-02-14T01:11:10.472Z,0.00
2023-02-14T01:12:10.432Z,0.00
2023-02-14T01:13:10.413Z,0.00
2023-02-14T01:14:10.413Z,0.00
2023-02-14T01:15:10.406Z,0.00
2023-02-14T01:16:10.474Z,0.00
2023-02-14T01:17:10.393Z,0.00
2023-02-14T01:18:10.370Z,0.00
2023-02-14T01:19:10.365Z,0.00
2023-02-14T01:20:10.388Z,0.00
2023-02-14T01:21:10.346Z,0.00
2023-02-14T01:22:10.321Z,0.00
2023-02-14T01:23:10.345Z,0.00
2023-02-14T01:24:10.302Z,0.00
2023-02-14T01:25:10.320Z,0.00
2023-02-14T01:26:10.284Z,0.00
2023-02-14T01:27:10.274Z,0.00
2023-02-14T01:28:10.270Z,0.00
2023-02-14T01:29:10.243Z,0.00
2023-02-14T01:30:10.292Z,0.00
2023-02-14T01:31:10.289Z,0.00
2023-02-14T01:32:10.245Z,0.00
2023-02-14T01:33:10.198Z,0.00
2023-02-14T01:34:10.214Z,0.00
2023-02-14T01:35:10.199Z,0.00
2023-02-14T01:36:10.192Z,0.00
2023-02-14T01:37:10.173Z,0.00
2023-02-14T01:38:10.162Z,0.00
2023-02-14T01:39:10.143Z,0.00
2023-02-14T01:40:10.155Z,0.00
2023-02-14T01:41:10.119Z,0.00
2023-02-14T01:42:10.119Z,0.00
2023-02-14T01:43:10.092Z,0.00
2023-02-14T01:44:10.099Z,0.00
2023-02-14T01:45:10.130Z,0.00
2023-02-14T01:46:10.126Z,0.00
2023-02-14T01:47:10.099Z,0.00
2023-02-14T01:48:10.054Z,0.00
2023-02-14T01:49:10.030Z,0.00
2023-02-14T01:50:10.035Z,0.00
2023-02-14T01:51:10.018Z,0.00
2023-02-14T01:52:10.037Z,0.00
2023-02-14T01:53:09.992Z,0.00
2023-02-14T01:54:09.989Z,0.00
2023-02-14T01:55:10.004Z,0.00
2023-02-14T01:56:09.976Z,0.00
2023-02-14T01:57:09.956Z,0.00
2023-02-14T01:58:09.965Z,0.00
2023-02-14T01:59:09.979Z,0.00
2023-02-14T02:00:09.942Z,0.00
2023-02-14T02:01:09.945Z,0.00
2023-02-14T02:02:09.934Z,0.00
2023-02-14T02:03:09.900Z,0.00
2023-02-14T02:04:09.882Z,0.00
2023-02-14T02:05:09.890Z,0.00
2023-02-14T02:06:09.872Z,0.00
2023-02-14T02:07:09.851Z,0.00
2023-02-14T02:08:09.842Z,0.00
2023-02-14T02:09:09.819Z,0.00
2023-02-14T02:10:09.840Z,0.00
2023-02-14T02:11:09.823Z,0.00
2023-02-14T02:12:09.806Z,0.00
2023-02-14T02:13:09.781Z,0.00
2023-02-14T02:14:09.770Z,0.00
2023-02-14T02:15:09.865Z,0.00
2023-02-14T02:16:09.767Z,0.00
2023-02-14T02:17:09.742Z,0.00
2023-02-14T02:18:09.726Z,0.00
2023-02-14T02:19:09.720Z,0.00
2023-02-14T02:20:09.710Z,0.00
2023-02-14T02:21:09.697Z,0.00
2023-02-14T02:22:09.692Z,0.00
2023-02-14T02:23:09.697Z,0.00
2023-02-14T02:24:09.669Z,0.00
2023-02-14T02:25:09.647Z,0.00
2023-02-14T02:26:09.657Z,0.00
2023-02-14T02:27:09.627Z,0.00
2023-02-14T02:28:09.626Z,0.00
2023-02-14T02:29:09.626Z,0.00
2023-02-14T02:30:09.691Z,0.00
2023-02-14T02:31:09.753Z,0.00
2023-02-14T02:32:09.787Z,0.00
2023-02-14T02:33:09.578Z,0.00
2023-02-14T02:34:09.563Z,0.00
2023-02-14T02:35:09.552Z,0.00
2023-02-14T02:36:09.545Z,0.00
2023-02-14T02:37:09.528Z,0.00
2023-02-14T02:38:09.557Z,0.00
2023-02-14T02:39:09.537Z,0.00
2023-02-14T02:40:09.516Z,0.00
2023-02-14T02:41:09.525Z,0.00
2023-02-14T02:42:09.516Z,0.00
2023-02-14T02:43:09.515Z,0.00
2023-02-14T02:44:09.469Z,0.00
2023-02-14T02:45:09.433Z,0.00
2023-02-14T02:46:09.506Z,0.00
2023-02-14T02:47:09.417Z,0.00
2023-02-14T02:48:09.421Z,0.00
2023-02-14T02:49:09.405Z,0.00
2023-02-14T02:50:09.394Z,0.00
2023-02-14T02:51:09.393Z,0.00
2023-02-14T02:52:09.398Z,0.00
2023-02-14T02:53:09.365Z,0.00
2023-02-14T02:54:09.362Z,0.00
2023-02-14T02:55:09.338Z,0.00
2023-02-14T02:56:09.351Z,0.00
2023-02-14T02:57:09.338Z,0.00
2023-02-14T02:58:09.328Z,0.00
2023-02-14T02:59:09.301Z,0.00
2023-02-14T03:00:09.304Z,0.00
2023-02-14T03:01:09.349Z,0.00
2023-02-14T03:02:09.266Z,0.00
2023-02-14T03:03:09.260Z,0.00
2023-02-14T03:04:09.251Z,0.00
2023-02-14T03:05:09.242Z,0.00
2023-02-14T03:06:09.234Z,0.00
2023-02-14T03:07:09.212Z,0.00
2023-02-14T03:08:09.223Z,0.00
2023-02-14T03:09:09.190Z,0.00
2023-02-14T03:10:09.190Z,0.00
2023-02-14T03:11:09.190Z,0.00
2023-02-14T03:12:09.197Z,0.00
2023-02-14T03:13:09.201Z,0.00
2023-02-14T03:14:09.141Z,0.00
2023-02-14T03:15:09.130Z,0.00
2023-02-14T03:16:09.186Z,0.00
2023-02-14T03:17:09.129Z,0.00
2023-02-14T03:18:09.099Z,0.00
2023-02-14T03:19:09.104Z,0.00
2023-02-14T03:20:09.092Z,0.00
2023-02-14T03:21:09.098Z,0.00
2023-02-14T03:22:09.092Z,0.00
2023-02-14T03:23:09.059Z,0.00
2023-02-14T03:24:09.031Z,0.00
2023-02-14T03:25:09.091Z,0.00
2023-02-14T03:26:09.048Z,0.00
2023-02-14T03:27:08.998Z,0.00
2023-02-14T03:28:08.993Z,0.00
2023-02-14T03:29:09.010Z,0.00
2023-02-14T03:30:09.009Z,0.00
2023-02-14T03:31:09.028Z,0.00
2023-02-14T03:32:09.135Z,0.00
2023-02-14T03:33:08.947Z,0.00
2023-02-14T03:34:08.932Z,0.00
2023-02-14T03:35:08.917Z,0.00
2023-02-14T03:36:08.909Z,0.00
2023-02-14T03:37:08.916Z,0.00
2023-02-14T03:38:08.883Z,0.00
2023-02-14T03:39:08.888Z,0.00
2023-02-14T03:40:08.875Z,0.00
2023-02-14T03:41:08.887Z,0.00
2023-02-14T03:42:09.144Z,0.00
2023-02-14T03:43:08.850Z,0.00
2023-02-14T03:44:08.828Z,0.00
2023-02-14T03:45:08.936Z,0.00
2023-02-14T03:46:08.863Z,0.00
2023-02-14T03:47:08.810Z,0.00
2023-02-14T03:48:08.784Z,0.00
2023-02-14T03:49:08.801Z,0.00
2023-02-14T03:50:08.755Z,0.00
2023-02-14T03:51:08.745Z,0.00
2023-02-14T03:52:08.757Z,0.00
2023-02-14T03:53:08.724Z,0.00
2023-02-14T03:54:08.727Z,0.00
2023-02-14T03:55:08.706Z,0.00
2023-02-14T03:56:08.699Z,0.00
2023-02-14T03:57:08.703Z,0.00
2023-02-14T03:58:08.679Z,0.00
2023-02-14T03:59:08.663Z,0.00
2023-02-14T04:00:08.655Z,0.00
2023-02-14T04:01:08.642Z,0.00
2023-02-14T04:02:08.652Z,0.00
2023-02-14T04:03:08.639Z,0.00
2023-02-14T04:04:08.645Z,0.00
2023-02-14T04:05:08.641Z,0.00
2023-02-14T04:06:08.591Z,0.00
2023-02-14T04:07:08.604Z,0.00
2023-02-14T04:08:08.571Z,0.00
2023-02-14T04:09:08.561Z,0.00
2023-02-14T04:10:08.554Z,0.00
2023-02-14T04:11:08.550Z,0.00
2023-02-14T04:12:08.560Z,0.00
2023-02-14T04:13:08.533Z,0.00
2023-02-14T04:14:08.509Z,0.00
2023-02-14T04:15:08.504Z,0.00
2023-02-14T04:16:08.529Z,0.00
2023-02-14T04:17:08.508Z,0.00
2023-02-14T04:18:08.483Z,0.00
2023-02-14T04:19:08.464Z,0.00
2023-02-14T04:20:08.449Z,0.00
2023-02-14T04:21:08.433Z,0.00
2023-02-14T04:22:08.451Z,0.00
2023-02-14T04:23:08.420Z,0.00
2023-02-14T04:24:08.407Z,0.00
2023-02-14T04:25:08.404Z,0.00
2023-02-14T04:26:08.395Z,0.00
2023-02-14T04:27:08.388Z,0.00
2023-02-14T04:28:08.369Z,0.00
2023-02-14T04:29:08.361Z,0.00
2023-02-14T04:30:08.369Z,0.00
2023-02-14T04:31:08.388Z,0.00
2023-02-14T04:32:08.457Z,0.00
2023-02-14T04:33:08.335Z,0.00
2023-02-14T04:34:08.299Z,0.00
2023-02-14T04:35:08.290Z,0.00
2023-02-14T04:36:08.267Z,0.00
2023-02-14T04:37:08.304Z,0.00
2023-02-14T04:38:08.274Z,0.00
2023-02-14T04:39:08.260Z,0.00
2023-02-14T04:40:08.238Z,0.00
2023-02-14T04:41:08.228Z,0.00
2023-02-14T04:42:08.227Z,0.00
2023-02-14T04:43:08.217Z,0.00
2023-02-14T04:44:08.183Z,0.00
2023-02-14T04:45:08.204Z,0.00
2023-02-14T04:46:08.211Z,0.00
2023-02-14T04:47:08.205Z,0.00
2023-02-14T04:48:08.151Z,0.00
2023-02-14T04:49:08.162Z,0.00
2023-02-14T04:50:08.132Z,0.00
2023-02-14T04:51:08.162Z,0.00
2023-02-14T04:52:08.154Z,0.00
2023-02-14T04:53:08.092Z,0.00
2023-02-14T04:54:08.084Z,0.00
2023-02-14T04:55:08.084Z,0.00
2023-02-14T04:56:08.052Z,0.00
2023-02-14T04:57:08.081Z,0.00
2023-02-14T04:58:08.034Z,0.00
2023-02-14T04:59:08.035Z,0.00
2023-02-14T05:00:08.057Z,0.00
2023-02-14T05:01:08.060Z,0.00
2023-02-14T05:02:08.016Z,0.00
2023-02-14T05:03:08.034Z,0.00
2023-02-14T05:04:08.000Z,0.00
2023-02-14T05:05:07.989Z,0.00
2023-02-14T05:06:07.998Z,0.00
2023-02-14T05:07:07.951Z,0.00
2023-02-14T05:08:07.930Z,0.00
2023-02-14T05:09:07.947Z,0.00
2023-02-14T05:10:07.926Z,0.00
2023-02-14T05:11:07.897Z,0.00
2023-02-14T05:12:07.899Z,0.00
2023-02-14T05:13:07.888Z,0.00
2023-02-14T05:14:07.882Z,0.00
2023-02-14T05:15:07.856Z,0.00
2023-02-14T05:16:07.941Z,0.00
2023-02-14T05:17:07.847Z,0.00
2023-02-14T05:18:07.827Z,0.00
2023-02-14T05:19:07.834Z,0.00
2023-02-14T05:20:07.948Z,0.00
2023-02-14T05:21:07.798Z,0.00
2023-02-14T05:22:07.849Z,0.00
2023-02-14T05:23:07.775Z,0.00
2023-02-14T05:24:07.783Z,0.00
2023-02-14T05:25:07.783Z,0.00
2023-02-14T05:26:07.751Z,0.00
2023-02-14T05:27:07.780Z,0.00
2023-02-14T05:28:07.777Z,0.00
2023-02-14T05:29:07.762Z,0.00
2023-02-14T05:30:07.812Z,0.00
2023-02-14T05:31:07.825Z,0.00
2023-02-14T05:32:07.738Z,0.00
2023-02-14T05:33:07.661Z,0.00
2023-02-14T05:34:07.655Z,0.00
2023-02-14T05:35:07.657Z,0.00
2023-02-14T05:36:07.690Z,0.00
2023-02-14T05:37:07.653Z,0.00
2023-02-14T05:38:07.620Z,0.00
2023-02-14T05:39:07.635Z,0.00
2023-02-14T05:40:07.579Z,0.00
2023-02-14T05:41:07.711Z,0.00
2023-02-14T05:42:51.202Z,0.00
2023-02-14T05:43:51.176Z,0.00
2023-02-14T05:44:51.175Z,0.00
2023-02-14T05:45:51.232Z,0.00
2023-02-14T05:46:51.151Z,0.00
2023-02-14T05:47:51.171Z,0.00
2023-02-14T05:48:51.137Z,0.00
2023-02-14T05:49:51.116Z,0.00
2023-02-14T05:50:51.123Z,0.00
2023-02-14T05:51:51.119Z,0.00
2023-02-14T05:52:51.094Z,0.00
2023-02-14T05:53:51.080Z,0.00
2023-02-14T05:54:51.075Z,0.00
2023-02-14T05:55:51.060Z,0.00
2023-02-14T05:56:51.066Z,0.00
2023-02-14T05:57:51.075Z,0.00
2023-02-14T05:58:51.024Z,0.00
2023-02-14T05:59:51.031Z,0.00
2023-02-14T06:00:51.016Z,0.00
2023-02-14T06:01:51.043Z,0.00
2023-02-14T06:02:50.993Z,0.00
2023-02-14T06:03:50.973Z,0.00
2023-02-14T06:04:51.034Z,0.00
2023-02-14T06:05:51.038Z,0.00
2023-02-14T06:06:50.947Z,0.00
2023-02-14T06:07:50.901Z,1.00
2023-02-14T06:08:50.929Z,0.00
2023-02-14T06:09:50.876Z,1.00
2023-02-14T06:10:50.856Z,1.00
2023-02-14T06:11:50.860Z,1.00
2023-02-14T06:12:50.846Z,1.00
2023-02-14T06:13:50.825Z,2.00
2023-02-14T06:14:50.852Z,2.00
2023-02-14T06:15:50.793Z,1.00
2023-02-14T06:16:50.866Z,1.00
2023-02-14T06:17:50.774Z,1.00
2023-02-14T06:18:50.783Z,4.00
2023-02-14T06:19:50.753Z,1.00
2023-02-14T06:20:50.812Z,4.00
2023-02-14T06:21:50.735Z,4.00
2023-02-14T06:22:50.743Z,4.00
2023-02-14T06:23:50.713Z,3.00
2023-02-14T06:24:50.714Z,8.00
2023-02-14T06:25:50.701Z,6.00
2023-02-14T06:26:50.693Z,9.00
2023-02-14T06:27:50.688Z,12.00
2023-02-14T06:28:50.664Z,15.00
2023-02-14T06:29:50.827Z,19.00
2023-02-14T06:30:50.767Z,21.00
2023-02-14T06:31:50.772Z,26.00
2023-02-14T06:32:50.630Z,29.00
2023-02-14T06:33:50.633Z,38.00
2023-02-14T06:34:50.599Z,46.00
2023-02-14T06:35:50.607Z,51.00
2023-02-14T06:36:50.582Z,62.00
2023-02-14T06:37:50.609Z,72.00
2023-02-14T06:38:50.560Z,82.00
2023-02-14T06:39:50.552Z,95.00
2023-02-14T06:40:50.552Z,110.00
2023-02-14T06:41:50.529Z,124.00
2023-02-14T06:42:50.560Z,144.00
2023-02-14T06:43:50.587Z,160.00
2023-02-14T06:44:50.500Z,178.00
2023-02-14T06:45:50.669Z,198.00
2023-02-14T06:46:50.519Z,219.00
2023-02-14T06:47:50.466Z,240.00
2023-02-14T06:48:50.476Z,262.00
2023-02-14T06:49:50.480Z,290.00
2023-02-14T06:50:50.446Z,314.00
2023-02-14T06:51:50.417Z,343.00
2023-02-14T06:52:50.557Z,375.00
2023-02-14T06:53:50.432Z,401.00
2023-02-14T06:54:50.388Z,432.00
2023-02-14T06:55:50.378Z,463.00
2023-02-14T06:56:50.371Z,486.00
2023-02-14T06:57:50.431Z,516.00
2023-02-14T06:58:50.351Z,538.00
2023-02-14T06:59:50.359Z,565.00
2023-02-14T07:00:50.328Z,593.00
2023-02-14T07:01:50.451Z,619.00
2023-02-14T07:02:51.604Z,646.00
2023-02-14T07:03:50.311Z,674.00
2023-02-14T07:04:50.286Z,703.00
2023-02-14T07:05:50.290Z,730.00
2023-02-14T07:06:50.272Z,757.00
2023-02-14T07:07:50.256Z,787.00
2023-02-14T07:08:50.261Z,812.00
2023-02-14T07:09:50.233Z,838.00
2023-02-14T07:10:50.214Z,864.00
2023-02-14T07:11:50.212Z,891.00
2023-02-14T07:12:50.202Z,916.00
2023-02-14T07:13:50.200Z,946.00
2023-02-14T07:14:50.213Z,971.00
2023-02-14T07:15:50.232Z,997.00
2023-02-14T07:16:50.191Z,1024.00
2023-02-14T07:17:50.146Z,1053.00
2023-02-14T07:18:50.202Z,1081.00
2023-02-14T07:19:50.139Z,1113.00
2023-02-14T07:20:50.102Z,1134.00
2023-02-14T07:21:50.111Z,1153.00
2023-02-14T07:22:50.200Z,1176.00
2023-02-14T07:23:50.132Z,1194.00
2023-02-14T07:24:50.072Z,1216.00
2023-02-14T07:25:50.074Z,1241.00
2023-02-14T07:26:50.074Z,1260.00
2023-02-14T07:27:50.055Z,1282.00
2023-02-14T07:28:50.065Z,1305.00
2023-02-14T07:29:50.099Z,1332.00
2023-02-14T07:30:50.185Z,1358.00
2023-02-14T07:31:50.153Z,1380.00
2023-02-14T07:32:50.010Z,1399.00
2023-02-14T07:33:50.211Z,1427.00
2023-02-14T07:34:49.959Z,1454.00
2023-02-14T07:35:49.999Z,1476.00
2023-02-14T07:36:49.946Z,1503.00
2023-02-14T07:37:49.933Z,1529.00
2023-02-14T07:38:49.939Z,1558.00
2023-02-14T07:39:49.951Z,1583.00
2023-02-14T07:40:49.898Z,1612.00
2023-02-14T07:41:49.888Z,1645.00
2023-02-14T07:42:49.874Z,1679.00
2023-02-14T07:43:49.874Z,1709.00
2023-02-14T07:44:49.859Z,1743.00
2023-02-14T07:45:49.846Z,1775.00
2023-02-14T07:46:49.832Z,1796.00
2023-02-14T07:47:49.840Z,1817.00
2023-02-14T07:48:49.847Z,1841.00
2023-02-14T07:49:49.876Z,1862.00
2023-02-14T07:50:49.786Z,1886.00
2023-02-14T07:51:49.881Z,1908.00
2023-02-14T07:52:49.769Z,1931.00
2023-02-14T07:53:49.794Z,1952.00
2023-02-14T07:54:49.735Z,1986.00
2023-02-14T07:55:49.732Z,2019.00
2023-02-14T07:56:49.724Z,2046.00
2023-02-14T07:57:49.729Z,2059.00
2023-02-14T07:58:49.773Z,2059.00
2023-02-14T07:59:49.697Z,2066.00
2023-02-14T08:00:49.674Z,2083.00
2023-02-14T08:01:49.723Z,2101.00
2023-02-14T08:02:49.670Z,2139.00
2023-02-14T08:03:49.735Z,2209.00
2023-02-14T08:04:49.739Z,2275.00
2023-02-14T08:05:49.636Z,2296.00
2023-02-14T08:06:49.612Z,2313.00
2023-02-14T08:07:49.629Z,2339.00
2023-02-14T08:08:49.601Z,2368.00
2023-02-14T08:09:49.585Z,2376.00
2023-02-14T08:10:49.573Z,2363.00
2023-02-14T08:11:49.660Z,2351.00
2023-02-14T08:12:49.575Z,2363.00
2023-02-14T08:13:49.558Z,2353.00
2023-02-14T08:14:49.570Z,2309.00
2023-02-14T08:15:49.559Z,2291.00
2023-02-14T08:16:49.539Z,2303.00
2023-02-14T08:17:49.498Z,2318.00
2023-02-14T08:18:49.540Z,2329.00
2023-02-14T08:19:49.488Z,2345.00
2023-02-14T08:20:49.466Z,2362.00
2023-02-14T08:21:49.468Z,2381.00
2023-02-14T08:22:49.527Z,2402.00
2023-02-14T08:23:49.436Z,2423.00
2023-02-14T08:24:49.426Z,2439.00
2023-02-14T08:25:49.407Z,2454.00
2023-02-14T08:26:49.416Z,2469.00
2023-02-14T08:27:49.538Z,2486.00
2023-02-14T08:28:49.389Z,2504.00
2023-02-14T08:29:49.413Z,2519.00
2023-02-14T08:30:49.378Z,2536.00
2023-02-14T08:31:49.408Z,2556.00
2023-02-14T08:32:49.349Z,2574.00
2023-02-14T08:33:49.333Z,2591.00
2023-02-14T08:34:49.394Z,2607.00
2023-02-14T08:35:49.326Z,2626.00
2023-02-14T08:36:49.301Z,2645.00
2023-02-14T08:37:49.315Z,2664.00
2023-02-14T08:38:49.273Z,2683.00
2023-02-14T08:39:49.262Z,2700.00
2023-02-14T08:40:49.264Z,2718.00
2023-02-14T08:41:49.250Z,2731.00
2023-02-14T08:42:49.328Z,2750.00
2023-02-14T08:43:49.232Z,2763.00
2023-02-14T08:44:49.251Z,2781.00
2023-02-14T08:45:49.207Z,2803.00
2023-02-14T08:46:49.346Z,2819.00
2023-02-14T08:47:49.223Z,2842.00
2023-02-14T08:48:49.181Z,2860.00
2023-02-14T08:49:49.187Z,2881.00
2023-02-14T08:50:49.203Z,2909.00
2023-02-14T08:51:49.339Z,2935.00
2023-02-14T08:52:49.137Z,2988.00
2023-02-14T08:53:49.240Z,3053.00
2023-02-14T08:54:49.524Z,3088.00
2023-02-14T08:55:49.178Z,3083.00
2023-02-14T08:56:49.114Z,3054.00
2023-02-14T08:57:49.099Z,3041.00
2023-02-14T08:58:49.085Z,3051.00
2023-02-14T08:59:49.117Z,3054.00
2023-02-14T09:00:49.077Z,3068.00
2023-02-14T09:01:49.192Z,3080.00
2023-02-14T09:02:49.021Z,3092.00
2023-02-14T09:03:49.090Z,3132.00
2023-02-14T09:04:49.070Z,3281.00
2023-02-14T09:05:49.073Z,3384.00
2023-02-14T09:06:49.146Z,3419.00
2023-02-14T09:07:49.007Z,3442.00
2023-02-14T09:08:49.429Z,3461.00
2023-02-14T09:09:48.970Z,3479.00
2023-02-14T09:10:48.973Z,3490.00
2023-02-14T09:11:49.054Z,3503.00
2023-02-14T09:12:48.962Z,3523.00
2023-02-14T09:13:49.082Z,3543.00
2023-02-14T09:14:48.916Z,3560.00
2023-02-14T09:15:48.930Z,3574.00
2023-02-14T09:16:49.000Z,3585.00
2023-02-14T09:17:48.983Z,3604.00
2023-02-14T09:18:48.959Z,3623.00
2023-02-14T09:19:48.923Z,3636.00
2023-02-14T09:20:48.845Z,3657.00
2023-02-14T09:21:48.840Z,3681.00
2023-02-14T09:22:49.005Z,3699.00
2023-02-14T09:23:48.838Z,3722.00
2023-02-14T09:24:48.882Z,3755.00
2023-02-14T09:25:48.782Z,3786.00
2023-02-14T09:26:48.765Z,3817.00
2023-02-14T09:27:48.813Z,3864.00
2023-02-14T09:28:48.749Z,3892.00
2023-02-14T09:29:48.859Z,3908.00
2023-02-14T09:30:48.777Z,3926.00
2023-02-14T09:31:48.811Z,3954.00
2023-02-14T09:32:48.713Z,3986.00
2023-02-14T09:33:48.729Z,4018.00
2023-02-14T09:34:48.707Z,4087.00
2023-02-14T09:35:48.715Z,4118.00
2023-02-14T09:36:48.689Z,4173.00
2023-02-14T09:37:48.668Z,4178.00
2023-02-14T09:38:48.682Z,4126.00
2023-02-14T09:39:48.637Z,4096.00
2023-02-14T09:40:48.822Z,4141.00
2023-02-14T09:41:48.645Z,4119.00
2023-02-14T09:42:48.597Z,4110.00
2023-02-14T09:43:48.583Z,4122.00
2023-02-14T09:44:49.003Z,4127.00
2023-02-14T09:45:48.779Z,4127.00
2023-02-14T09:46:48.550Z,4130.00
2023-02-14T09:47:48.583Z,4128.00
2023-02-14T09:48:48.557Z,4132.00
2023-02-14T09:49:48.685Z,4148.00
2023-02-14T09:50:48.550Z,4196.00
2023-02-14T09:51:48.497Z,4311.00
2023-02-14T09:52:48.477Z,4526.00
2023-02-14T09:53:48.493Z,4750.00
2023-02-14T09:54:48.481Z,4953.00
2023-02-14T09:55:48.513Z,5276.00
2023-02-14T09:56:51.556Z,5561.00
2023-02-14T09:57:48.424Z,5784.00
2023-02-14T09:58:48.454Z,5942.00
2023-02-14T09:59:48.420Z,5993.00
2023-02-14T10:00:48.512Z,6052.00
2023-02-14T10:01:48.438Z,6128.00
2023-02-14T10:02:48.376Z,6186.00
2023-02-14T10:03:48.389Z,6093.00
2023-02-14T10:04:48.746Z,5761.00
2023-02-14T10:05:48.355Z,5335.00
2023-02-14T10:06:48.348Z,4939.00
2023-02-14T10:07:48.334Z,4731.00
2023-02-14T10:08:48.311Z,4629.00
2023-02-14T10:09:48.317Z,4547.00
2023-02-14T10:10:48.330Z,4482.00
2023-02-14T10:11:48.292Z,4433.00
2023-02-14T10:12:48.277Z,4417.00
2023-02-14T10:13:48.255Z,4434.00
2023-02-14T10:14:48.247Z,4484.00
2023-02-14T10:15:48.273Z,4528.00
2023-02-14T10:16:48.281Z,4514.00
2023-02-14T10:17:48.212Z,4464.00
2023-02-14T10:18:48.211Z,4427.00
2023-02-14T10:19:48.253Z,4408.00
2023-02-14T10:20:48.276Z,4400.00
2023-02-14T10:21:48.407Z,4396.00
2023-02-14T10:22:48.195Z,4413.00
2023-02-14T10:23:48.155Z,4422.00
2023-02-14T10:24:48.145Z,4440.00
2023-02-14T10:25:48.181Z,4461.00
2023-02-14T10:26:48.144Z,4472.00
2023-02-14T10:27:48.145Z,4426.00
2023-02-14T10:28:48.122Z,4426.00
2023-02-14T10:29:48.263Z,4498.00
2023-02-14T10:30:48.188Z,4504.00
2023-02-14T10:31:48.101Z,4517.00
2023-02-14T10:32:48.065Z,4539.00
2023-02-14T10:33:48.059Z,4577.00
2023-02-14T10:34:48.044Z,4600.00
2023-02-14T10:35:48.090Z,4608.00
2023-02-14T10:36:48.011Z,4593.00
2023-02-14T10:37:48.057Z,4609.00
2023-02-14T10:38:48.272Z,4612.00
2023-02-14T10:39:47.972Z,4609.00
2023-02-14T10:40:47.974Z,4596.00
2023-02-14T10:41:47.998Z,4603.00
2023-02-14T10:42:48.032Z,4609.00
2023-02-14T10:43:47.935Z,4619.00
2023-02-14T10:44:47.914Z,4627.00
2023-02-14T10:45:47.994Z,4626.00
2023-02-14T10:46:48.220Z,4624.00
2023-02-14T10:47:47.904Z,4637.00
2023-02-14T10:48:48.263Z,4644.00
2023-02-14T10:49:47.890Z,4652.00
2023-02-14T10:50:47.890Z,4657.00
2023-02-14T10:51:47.852Z,4671.00
2023-02-14T10:52:47.839Z,4698.00
2023-02-14T10:53:48.062Z,4750.00
2023-02-14T10:54:47.815Z,4794.00
2023-02-14T10:55:47.861Z,4816.00
2023-02-14T10:56:47.851Z,4808.00
2023-02-14T10:57:47.772Z,4776.00
2023-02-14T10:58:47.775Z,4789.00
2023-02-14T10:59:47.779Z,4786.00
2023-02-14T11:00:48.091Z,4786.00
2023-02-14T11:01:47.792Z,4802.00
2023-02-14T11:02:47.779Z,4859.00
2023-02-14T11:03:47.893Z,4936.00
2023-02-14T11:04:47.716Z,4947.00
2023-02-14T11:05:47.748Z,4894.00
2023-02-14T11:06:47.765Z,4833.00
2023-02-14T11:07:47.832Z,4812.00
2023-02-14T11:08:48.027Z,4819.00
2023-02-14T11:09:47.647Z,4859.00
2023-02-14T11:10:47.638Z,4990.00
2023-02-14T11:11:47.664Z,5227.00
2023-02-14T11:12:47.700Z,5530.00
2023-02-14T11:13:47.609Z,5780.00
2023-02-14T11:14:47.603Z,5931.00
2023-02-14T11:15:47.675Z,6003.00
2023-02-14T11:16:47.652Z,6028.00
2023-02-14T11:17:47.553Z,6024.00
2023-02-14T11:18:47.584Z,6009.00
2023-02-14T11:19:47.545Z,6001.00
2023-02-14T11:20:47.665Z,5981.00
2023-02-14T11:21:47.526Z,5967.00
2023-02-14T11:22:47.503Z,5952.00
2023-02-14T11:23:47.493Z,5948.00
2023-02-14T11:24:47.490Z,5941.00
2023-02-14T11:25:47.463Z,5930.00
2023-02-14T11:26:47.569Z,5910.00
2023-02-14T11:27:47.479Z,5887.00
2023-02-14T11:28:47.472Z,5865.00
2023-02-14T11:29:47.753Z,5840.00
2023-02-14T11:30:47.554Z,5839.00
2023-02-14T11:31:47.538Z,5838.00
2023-02-14T11:32:47.432Z,5827.00
2023-02-14T11:33:47.381Z,5800.00
2023-02-14T11:34:47.392Z,5778.00
2023-02-14T11:35:47.469Z,5764.00
2023-02-14T11:36:47.680Z,5754.00
2023-02-14T11:37:47.364Z,5748.00
2023-02-14T11:38:47.390Z,5748.00
2023-02-14T11:39:47.323Z,5762.00
2023-02-14T11:40:47.304Z,5781.00
2023-02-14T11:41:47.317Z,5818.00
2023-02-14T11:42:47.749Z,5872.00
2023-02-14T11:43:47.291Z,5946.00
2023-02-14T11:44:47.306Z,6024.00
2023-02-14T11:45:47.324Z,6103.00
2023-02-14T11:46:53.203Z,6166.00
2023-02-14T11:47:48.243Z,6205.00
2023-02-14T11:48:47.292Z,6223.00
2023-02-14T11:49:47.200Z,6233.00
2023-02-14T11:50:47.304Z,6259.00
2023-02-14T11:51:47.193Z,6265.00
2023-02-14T11:52:47.303Z,6242.00
2023-02-14T11:53:47.158Z,6184.00
2023-02-14T11:54:47.161Z,6107.00
2023-02-14T11:55:47.143Z,6021.00
2023-02-14T11:56:47.147Z,5953.00
2023-02-14T11:57:47.114Z,5919.00
2023-02-14T11:58:47.107Z,5906.00
2023-02-14T11:59:47.108Z,5883.00
2023-02-14T12:00:47.171Z,5843.00
2023-02-14T12:01:47.075Z,5786.00
2023-02-14T12:02:47.181Z,5722.00
2023-02-14T12:03:47.088Z,5643.00
2023-02-14T12:04:47.045Z,5559.00
2023-02-14T12:05:47.087Z,5491.00
2023-02-14T12:06:47.030Z,5426.00
2023-02-14T12:07:47.005Z,5386.00
2023-02-14T12:08:47.073Z,5363.00
2023-02-14T12:09:46.992Z,5344.00
2023-02-14T12:10:46.980Z,5320.00
2023-02-14T12:11:46.974Z,5304.00
2023-02-14T12:12:46.948Z,5288.00
2023-02-14T12:13:46.940Z,5281.00
2023-02-14T12:14:46.931Z,5274.00
2023-02-14T12:15:46.939Z,5268.00
2023-02-14T12:16:46.960Z,5274.00
2023-02-14T12:17:46.905Z,5278.00
2023-02-14T12:18:46.886Z,5278.00
2023-02-14T12:19:46.876Z,5274.00
2023-02-14T12:20:46.917Z,5273.00
2023-02-14T12:21:46.885Z,5260.00
2023-02-14T12:22:46.891Z,5247.00
2023-02-14T12:23:46.854Z,5224.00
2023-02-14T12:24:46.822Z,5202.00
2023-02-14T12:25:46.817Z,5186.00
2023-02-14T12:26:46.809Z,5169.00
2023-02-14T12:27:46.850Z,5159.00
2023-02-14T12:28:46.776Z,5153.00
2023-02-14T12:29:46.767Z,5140.00
2023-02-14T12:30:46.834Z,5128.00
2023-02-14T12:31:46.861Z,5123.00
2023-02-14T12:32:46.777Z,5119.00
2023-02-14T12:33:48.938Z,5104.00
2023-02-14T12:34:46.704Z,5093.00
2023-02-14T12:35:46.704Z,5084.00
2023-02-14T12:36:46.693Z,5071.00
2023-02-14T12:37:48.820Z,5062.00
2023-02-14T12:38:46.682Z,5052.00
2023-02-14T12:39:48.782Z,5049.00
2023-02-14T12:40:46.668Z,5044.00
2023-02-14T12:41:46.652Z,5046.00
2023-02-14T12:42:46.627Z,5045.00